sensor_id;sensor_type;location;lat;lon;timestamp;temperature;humidity
14138;DHT22;8199;51.310;9.466;2023-07-13T00:01:25;27.30;44.90
14138;DHT22;8199;51.310;9.466;2023-07-13T00:03:50;27.30;44.90
14138;DHT22;8199;51.310;9.466;2023-07-13T00:06:16;27.30;45.00
14138;DHT22;8199;51.310;9.466;2023-07-13T00:08:42;27.40;44.70
14138;DHT22;8199;51.310;9.466;2023-07-13T00:11:08;27.30;45.00
14138;DHT22;8199;51.310;9.466;2023-07-13T00:13:36;27.40;45.20
14138;DHT22;8199;51.310;9.466;2023-07-13T00:16:03;27.30;45.10
14138;DHT22;8199;51.310;9.466;2023-07-13T00:18:29;27.30;44.70
14138;DHT22;8199;51.310;9.466;2023-07-13T00:20:56;27.20;44.80
14138;DHT22;8199;51.310;9.466;2023-07-13T00:23:21;27.20;44.90
14138;DHT22;8199;51.310;9.466;2023-07-13T00:25:47;27.30;45.20
14138;DHT22;8199;51.310;9.466;2023-07-13T00:28:12;27.30;44.70
14138;DHT22;8199;51.310;9.466;2023-07-13T00:30:38;27.20;44.60
14138;DHT22;8199;51.310;9.466;2023-07-13T00:33:03;27.20;44.80
14138;DHT22;8199;51.310;9.466;2023-07-13T00:35:30;27.10;44.80
14138;DHT22;8199;51.310;9.466;2023-07-13T00:37:56;27.10;45.00
14138;DHT22;8199;51.310;9.466;2023-07-13T00:40:22;27.10;45.10
14138;DHT22;8199;51.310;9.466;2023-07-13T00:42:47;27.10;45.00
14138;DHT22;8199;51.310;9.466;2023-07-13T00:47:39;27.20;45.10
14138;DHT22;8199;51.310;9.466;2023-07-13T00:50:08;27.20;45.10
14138;DHT22;8199;51.310;9.466;2023-07-13T00:52:37;27.20;45.20
14138;DHT22;8199;51.310;9.466;2023-07-13T00:55:03;27.20;45.10
14138;DHT22;8199;51.310;9.466;2023-07-13T00:57:29;27.10;45.20
14138;DHT22;8199;51.310;9.466;2023-07-13T00:59:57;27.00;45.30
14138;DHT22;8199;51.310;9.466;2023-07-13T01:02:24;27.00;45.50
14138;DHT22;8199;51.310;9.466;2023-07-13T01:04:50;27.10;45.50
14138;DHT22;8199;51.310;9.466;2023-07-13T01:07:16;27.10;45.50
14138;DHT22;8199;51.310;9.466;2023-07-13T01:09:43;27.10;45.40
14138;DHT22;8199;51.310;9.466;2023-07-13T01:12:10;27.00;45.50
14138;DHT22;8199;51.310;9.466;2023-07-13T01:14:36;27.00;45.50
14138;DHT22;8199;51.310;9.466;2023-07-13T01:17:02;26.90;45.60
14138;DHT22;8199;51.310;9.466;2023-07-13T01:19:40;26.90;45.70
14138;DHT22;8199;51.310;9.466;2023-07-13T01:22:15;26.90;45.70
14138;DHT22;8199;51.310;9.466;2023-07-13T01:24:43;26.90;45.70
14138;DHT22;8199;51.310;9.466;2023-07-13T01:27:15;26.90;45.80
14138;DHT22;8199;51.310;9.466;2023-07-13T01:29:42;26.90;45.70
14138;DHT22;8199;51.310;9.466;2023-07-13T01:32:10;26.90;45.60
14138;DHT22;8199;51.310;9.466;2023-07-13T01:34:36;26.90;45.50
14138;DHT22;8199;51.310;9.466;2023-07-13T01:37:03;26.90;45.50
14138;DHT22;8199;51.310;9.466;2023-07-13T01:39:29;26.70;45.60
14138;DHT22;8199;51.310;9.466;2023-07-13T01:41:55;26.70;45.60
14138;DHT22;8199;51.310;9.466;2023-07-13T01:44:20;26.80;45.70
14138;DHT22;8199;51.310;9.466;2023-07-13T01:46:46;26.80;45.70
14138;DHT22;8199;51.310;9.466;2023-07-13T01:49:11;26.80;45.60
14138;DHT22;8199;51.310;9.466;2023-07-13T01:51:37;26.70;45.60
14138;DHT22;8199;51.310;9.466;2023-07-13T01:54:03;26.70;45.70
14138;DHT22;8199;51.310;9.466;2023-07-13T01:56:28;26.70;45.70
14138;DHT22;8199;51.310;9.466;2023-07-13T01:58:54;26.70;45.70
14138;DHT22;8199;51.310;9.466;2023-07-13T02:01:19;26.70;45.60
14138;DHT22;8199;51.310;9.466;2023-07-13T02:03:45;26.80;45.80
14138;DHT22;8199;51.310;9.466;2023-07-13T02:06:12;26.80;45.80
14138;DHT22;8199;51.310;9.466;2023-07-13T02:08:37;26.80;45.80
14138;DHT22;8199;51.310;9.466;2023-07-13T02:11:03;26.80;45.90
14138;DHT22;8199;51.310;9.466;2023-07-13T02:13:29;26.70;45.90
14138;DHT22;8199;51.310;9.466;2023-07-13T02:15:54;26.80;46.00
14138;DHT22;8199;51.310;9.466;2023-07-13T02:18:20;26.80;46.00
14138;DHT22;8199;51.310;9.466;2023-07-13T02:20:45;26.80;46.10
14138;DHT22;8199;51.310;9.466;2023-07-13T02:23:11;26.80;46.10
14138;DHT22;8199;51.310;9.466;2023-07-13T02:25:37;26.80;46.10
14138;DHT22;8199;51.310;9.466;2023-07-13T02:28:03;26.80;46.20
14138;DHT22;8199;51.310;9.466;2023-07-13T02:30:29;26.70;46.30
14138;DHT22;8199;51.310;9.466;2023-07-13T02:32:56;26.70;46.40
14138;DHT22;8199;51.310;9.466;2023-07-13T02:35:22;26.70;46.40
14138;DHT22;8199;51.310;9.466;2023-07-13T02:37:48;26.70;46.50
14138;DHT22;8199;51.310;9.466;2023-07-13T02:40:14;26.70;46.50
14138;DHT22;8199;51.310;9.466;2023-07-13T02:42:39;26.60;46.40
14138;DHT22;8199;51.310;9.466;2023-07-13T02:45:06;26.50;46.70
14138;DHT22;8199;51.310;9.466;2023-07-13T02:47:33;26.60;46.70
14138;DHT22;8199;51.310;9.466;2023-07-13T02:49:58;26.60;46.70
14138;DHT22;8199;51.310;9.466;2023-07-13T02:52:24;26.50;46.80
14138;DHT22;8199;51.310;9.466;2023-07-13T02:54:50;26.50;46.90
14138;DHT22;8199;51.310;9.466;2023-07-13T02:57:16;26.50;47.20
14138;DHT22;8199;51.310;9.466;2023-07-13T02:59:41;26.50;47.00
14138;DHT22;8199;51.310;9.466;2023-07-13T03:02:07;26.40;47.00
14138;DHT22;8199;51.310;9.466;2023-07-13T03:04:35;26.40;47.10
14138;DHT22;8199;51.310;9.466;2023-07-13T03:07:01;26.40;47.20
14138;DHT22;8199;51.310;9.466;2023-07-13T03:09:27;26.40;47.10
14138;DHT22;8199;51.310;9.466;2023-07-13T03:11:54;26.50;46.90
14138;DHT22;8199;51.310;9.466;2023-07-13T03:14:20;26.50;46.90
14138;DHT22;8199;51.310;9.466;2023-07-13T03:16:46;26.40;46.60
14138;DHT22;8199;51.310;9.466;2023-07-13T03:19:11;26.40;46.40
14138;DHT22;8199;51.310;9.466;2023-07-13T03:21:37;26.40;46.30
14138;DHT22;8199;51.310;9.466;2023-07-13T03:24:02;26.40;45.90
14138;DHT22;8199;51.310;9.466;2023-07-13T03:26:28;26.40;45.60
14138;DHT22;8199;51.310;9.466;2023-07-13T03:28:54;26.40;45.80
14138;DHT22;8199;51.310;9.466;2023-07-13T03:31:22;26.40;45.70
14138;DHT22;8199;51.310;9.466;2023-07-13T03:33:48;26.40;45.70
14138;DHT22;8199;51.310;9.466;2023-07-13T03:36:19;26.40;45.70
14138;DHT22;8199;51.310;9.466;2023-07-13T03:39:00;26.40;45.60
14138;DHT22;8199;51.310;9.466;2023-07-13T03:41:26;26.30;45.60
14138;DHT22;8199;51.310;9.466;2023-07-13T03:43:52;26.30;45.80
14138;DHT22;8199;51.310;9.466;2023-07-13T03:46:18;26.20;45.80
14138;DHT22;8199;51.310;9.466;2023-07-13T03:48:45;26.20;45.80
14138;DHT22;8199;51.310;9.466;2023-07-13T03:51:13;26.20;45.90
14138;DHT22;8199;51.310;9.466;2023-07-13T03:53:42;26.20;45.80
14138;DHT22;8199;51.310;9.466;2023-07-13T03:56:08;26.10;45.80
14138;DHT22;8199;51.310;9.466;2023-07-13T03:58:39;26.10;45.90
14138;DHT22;8199;51.310;9.466;2023-07-13T04:01:06;26.10;45.90
14138;DHT22;8199;51.310;9.466;2023-07-13T04:03:33;26.10;46.00
14138;DHT22;8199;51.310;9.466;2023-07-13T04:05:59;26.00;46.00
14138;DHT22;8199;51.310;9.466;2023-07-13T04:08:27;26.00;46.10
14138;DHT22;8199;51.310;9.466;2023-07-13T04:10:53;26.00;46.00
14138;DHT22;8199;51.310;9.466;2023-07-13T04:13:19;26.10;46.10
14138;DHT22;8199;51.310;9.466;2023-07-13T04:15:44;26.00;46.10
14138;DHT22;8199;51.310;9.466;2023-07-13T04:18:10;25.90;46.20
14138;DHT22;8199;51.310;9.466;2023-07-13T04:20:35;25.90;46.10
14138;DHT22;8199;51.310;9.466;2023-07-13T04:23:01;25.90;46.10
14138;DHT22;8199;51.310;9.466;2023-07-13T04:25:27;25.90;46.30
14138;DHT22;8199;51.310;9.466;2023-07-13T04:27:53;25.80;46.30
14138;DHT22;8199;51.310;9.466;2023-07-13T04:30:19;25.70;46.40
14138;DHT22;8199;51.310;9.466;2023-07-13T04:32:45;25.70;46.40
14138;DHT22;8199;51.310;9.466;2023-07-13T04:35:11;25.70;46.30
14138;DHT22;8199;51.310;9.466;2023-07-13T04:37:37;25.70;46.50
14138;DHT22;8199;51.310;9.466;2023-07-13T04:40:03;25.70;46.50
14138;DHT22;8199;51.310;9.466;2023-07-13T04:42:29;25.60;46.70
14138;DHT22;8199;51.310;9.466;2023-07-13T04:44:55;25.80;46.70
14138;DHT22;8199;51.310;9.466;2023-07-13T04:47:21;25.90;46.50
14138;DHT22;8199;51.310;9.466;2023-07-13T04:49:46;26.10;46.50
14138;DHT22;8199;51.310;9.466;2023-07-13T04:52:12;26.10;46.90
14138;DHT22;8199;51.310;9.466;2023-07-13T04:54:38;26.20;46.90
14138;DHT22;8199;51.310;9.466;2023-07-13T04:57:04;26.20;46.90
14138;DHT22;8199;51.310;9.466;2023-07-13T04:59:32;26.20;47.00
14138;DHT22;8199;51.310;9.466;2023-07-13T05:01:58;26.30;47.00
14138;DHT22;8199;51.310;9.466;2023-07-13T05:04:24;26.40;47.00
14138;DHT22;8199;51.310;9.466;2023-07-13T05:06:49;26.50;47.40
14138;DHT22;8199;51.310;9.466;2023-07-13T05:09:15;26.50;47.00
14138;DHT22;8199;51.310;9.466;2023-07-13T05:11:41;26.60;46.90
14138;DHT22;8199;51.310;9.466;2023-07-13T05:14:06;26.60;46.70
14138;DHT22;8199;51.310;9.466;2023-07-13T05:16:32;26.50;46.90
14138;DHT22;8199;51.310;9.466;2023-07-13T05:18:58;26.60;47.00
14138;DHT22;8199;51.310;9.466;2023-07-13T05:21:23;26.60;47.00
14138;DHT22;8199;51.310;9.466;2023-07-13T05:23:50;26.60;47.10
14138;DHT22;8199;51.310;9.466;2023-07-13T05:26:15;26.60;47.20
14138;DHT22;8199;51.310;9.466;2023-07-13T05:28:41;26.60;47.20
14138;DHT22;8199;51.310;9.466;2023-07-13T05:31:09;26.60;47.30
14138;DHT22;8199;51.310;9.466;2023-07-13T05:33:34;26.60;47.30
14138;DHT22;8199;51.310;9.466;2023-07-13T05:36:00;26.60;47.30
14138;DHT22;8199;51.310;9.466;2023-07-13T05:38:26;26.70;47.20
14138;DHT22;8199;51.310;9.466;2023-07-13T05:40:54;26.80;47.10
14138;DHT22;8199;51.310;9.466;2023-07-13T05:43:20;26.70;47.10
14138;DHT22;8199;51.310;9.466;2023-07-13T05:45:46;26.70;47.60
14138;DHT22;8199;51.310;9.466;2023-07-13T05:48:12;26.70;47.50
14138;DHT22;8199;51.310;9.466;2023-07-13T05:50:37;26.80;47.70
14138;DHT22;8199;51.310;9.466;2023-07-13T05:53:03;26.90;47.30
14138;DHT22;8199;51.310;9.466;2023-07-13T05:55:29;26.90;47.40
14138;DHT22;8199;51.310;9.466;2023-07-13T05:57:55;26.80;47.60
14138;DHT22;8199;51.310;9.466;2023-07-13T06:00:20;26.70;47.70
14138;DHT22;8199;51.310;9.466;2023-07-13T06:02:46;26.80;47.80
14138;DHT22;8199;51.310;9.466;2023-07-13T06:05:12;26.80;47.80
14138;DHT22;8199;51.310;9.466;2023-07-13T06:07:38;26.90;47.50
14138;DHT22;8199;51.310;9.466;2023-07-13T06:10:03;27.00;47.50
14138;DHT22;8199;51.310;9.466;2023-07-13T06:12:29;27.00;48.00
14138;DHT22;8199;51.310;9.466;2023-07-13T06:14:55;26.90;48.30
14138;DHT22;8199;51.310;9.466;2023-07-13T06:17:20;27.00;48.20
14138;DHT22;8199;51.310;9.466;2023-07-13T06:19:46;27.00;48.50
14138;DHT22;8199;51.310;9.466;2023-07-13T06:22:11;27.00;48.80
14138;DHT22;8199;51.310;9.466;2023-07-13T06:24:37;26.90;48.80
14138;DHT22;8199;51.310;9.466;2023-07-13T06:27:02;26.90;48.80
14138;DHT22;8199;51.310;9.466;2023-07-13T06:29:28;26.90;48.60
14138;DHT22;8199;51.310;9.466;2023-07-13T06:31:54;26.90;48.50
14138;DHT22;8199;51.310;9.466;2023-07-13T06:34:19;27.00;48.50
14138;DHT22;8199;51.310;9.466;2023-07-13T06:36:45;26.90;48.70
14138;DHT22;8199;51.310;9.466;2023-07-13T06:39:10;26.90;48.80
14138;DHT22;8199;51.310;9.466;2023-07-13T06:41:36;26.90;48.70
14138;DHT22;8199;51.310;9.466;2023-07-13T06:44:03;27.00;48.70
14138;DHT22;8199;51.310;9.466;2023-07-13T06:46:29;26.90;48.60
14138;DHT22;8199;51.310;9.466;2023-07-13T06:48:55;26.90;48.60
14138;DHT22;8199;51.310;9.466;2023-07-13T06:51:21;26.90;48.60
14138;DHT22;8199;51.310;9.466;2023-07-13T06:53:47;27.00;48.60
14138;DHT22;8199;51.310;9.466;2023-07-13T06:56:12;26.90;48.60
14138;DHT22;8199;51.310;9.466;2023-07-13T06:58:38;27.00;48.60
14138;DHT22;8199;51.310;9.466;2023-07-13T07:01:04;26.90;48.70
14138;DHT22;8199;51.310;9.466;2023-07-13T07:03:30;26.90;48.60
14138;DHT22;8199;51.310;9.466;2023-07-13T07:06:10;26.90;48.60
14138;DHT22;8199;51.310;9.466;2023-07-13T07:08:37;26.90;48.50
14138;DHT22;8199;51.310;9.466;2023-07-13T07:11:02;27.00;48.90
14138;DHT22;8199;51.310;9.466;2023-07-13T07:13:28;27.10;48.50
14138;DHT22;8199;51.310;9.466;2023-07-13T07:15:53;27.10;48.50
14138;DHT22;8199;51.310;9.466;2023-07-13T07:18:19;27.10;48.50
14138;DHT22;8199;51.310;9.466;2023-07-13T07:20:45;27.10;48.40
14138;DHT22;8199;51.310;9.466;2023-07-13T07:23:10;27.00;48.50
14138;DHT22;8199;51.310;9.466;2023-07-13T07:25:36;27.00;48.50
14138;DHT22;8199;51.310;9.466;2023-07-13T07:28:07;27.10;48.50
14138;DHT22;8199;51.310;9.466;2023-07-13T07:30:33;27.10;48.80
14138;DHT22;8199;51.310;9.466;2023-07-13T07:32:59;27.10;48.60
14138;DHT22;8199;51.310;9.466;2023-07-13T07:35:24;27.10;48.60
14138;DHT22;8199;51.310;9.466;2023-07-13T07:37:50;27.10;48.60
14138;DHT22;8199;51.310;9.466;2023-07-13T07:40:15;27.10;48.60
14138;DHT22;8199;51.310;9.466;2023-07-13T07:42:41;27.10;48.60
14138;DHT22;8199;51.310;9.466;2023-07-13T07:45:07;27.10;48.60
14138;DHT22;8199;51.310;9.466;2023-07-13T07:47:33;27.10;48.60
14138;DHT22;8199;51.310;9.466;2023-07-13T07:49:58;27.10;48.70
14138;DHT22;8199;51.310;9.466;2023-07-13T07:52:24;27.00;48.70
14138;DHT22;8199;51.310;9.466;2023-07-13T07:54:49;27.10;48.70
14138;DHT22;8199;51.310;9.466;2023-07-13T07:57:15;27.10;48.80
14138;DHT22;8199;51.310;9.466;2023-07-13T07:59:40;27.00;48.70
14138;DHT22;8199;51.310;9.466;2023-07-13T08:02:08;27.10;48.70
14138;DHT22;8199;51.310;9.466;2023-07-13T08:04:34;27.20;48.90
14138;DHT22;8199;51.310;9.466;2023-07-13T08:06:59;27.20;48.80
14138;DHT22;8199;51.310;9.466;2023-07-13T08:09:28;27.10;48.90
14138;DHT22;8199;51.310;9.466;2023-07-13T08:11:53;27.20;48.90
14138;DHT22;8199;51.310;9.466;2023-07-13T08:14:20;27.20;48.80
14138;DHT22;8199;51.310;9.466;2023-07-13T08:16:45;27.20;48.80
14138;DHT22;8199;51.310;9.466;2023-07-13T08:19:11;27.20;48.80
14138;DHT22;8199;51.310;9.466;2023-07-13T08:21:37;27.20;48.90
14138;DHT22;8199;51.310;9.466;2023-07-13T08:24:03;27.10;48.90
14138;DHT22;8199;51.310;9.466;2023-07-13T08:26:28;27.10;48.80
14138;DHT22;8199;51.310;9.466;2023-07-13T08:28:54;27.20;48.80
14138;DHT22;8199;51.310;9.466;2023-07-13T08:31:19;27.10;48.80
14138;DHT22;8199;51.310;9.466;2023-07-13T08:33:45;27.10;48.70
14138;DHT22;8199;51.310;9.466;2023-07-13T08:36:11;27.20;48.80
14138;DHT22;8199;51.310;9.466;2023-07-13T08:38:36;27.20;48.70
14138;DHT22;8199;51.310;9.466;2023-07-13T08:41:11;27.20;48.70
14138;DHT22;8199;51.310;9.466;2023-07-13T08:43:37;27.20;48.70
14138;DHT22;8199;51.310;9.466;2023-07-13T08:46:08;27.20;48.70
14138;DHT22;8199;51.310;9.466;2023-07-13T08:48:47;27.20;48.70
14138;DHT22;8199;51.310;9.466;2023-07-13T08:51:36;27.20;48.80
14138;DHT22;8199;51.310;9.466;2023-07-13T08:54:26;27.20;48.80
14138;DHT22;8199;51.310;9.466;2023-07-13T08:56:53;27.20;48.80
14138;DHT22;8199;51.310;9.466;2023-07-13T08:59:24;27.20;48.90
14138;DHT22;8199;51.310;9.466;2023-07-13T09:01:59;27.20;49.00
14138;DHT22;8199;51.310;9.466;2023-07-13T09:04:35;27.20;48.90
14138;DHT22;8199;51.310;9.466;2023-07-13T09:09:55;27.30;48.90
14138;DHT22;8199;51.310;9.466;2023-07-13T09:17:51;27.30;48.90
14138;DHT22;8199;51.310;9.466;2023-07-13T09:20:42;27.30;48.90
14138;DHT22;8199;51.310;9.466;2023-07-13T09:23:14;27.30;49.00
14138;DHT22;8199;51.310;9.466;2023-07-13T09:25:41;27.30;48.90
14138;DHT22;8199;51.310;9.466;2023-07-13T09:33:10;27.20;48.90
14138;DHT22;8199;51.310;9.466;2023-07-13T09:35:36;27.20;48.80
14138;DHT22;8199;51.310;9.466;2023-07-13T09:38:13;27.30;48.90
14138;DHT22;8199;51.310;9.466;2023-07-13T09:46:26;27.30;48.80
14138;DHT22;8199;51.310;9.466;2023-07-13T09:48:52;27.30;48.70
14138;DHT22;8199;51.310;9.466;2023-07-13T09:51:18;27.30;48.80
14138;DHT22;8199;51.310;9.466;2023-07-13T09:53:44;27.30;48.80
14138;DHT22;8199;51.310;9.466;2023-07-13T09:56:42;27.30;48.80
14138;DHT22;8199;51.310;9.466;2023-07-13T09:59:19;27.30;48.90
14138;DHT22;8199;51.310;9.466;2023-07-13T10:01:45;27.30;48.90
14138;DHT22;8199;51.310;9.466;2023-07-13T10:04:17;27.30;48.80
14138;DHT22;8199;51.310;9.466;2023-07-13T10:06:44;27.30;48.80
14138;DHT22;8199;51.310;9.466;2023-07-13T10:09:13;27.30;48.80
14138;DHT22;8199;51.310;9.466;2023-07-13T10:11:40;27.40;48.90
14138;DHT22;8199;51.310;9.466;2023-07-13T10:14:15;27.40;48.80
14138;DHT22;8199;51.310;9.466;2023-07-13T10:16:43;27.40;48.90
14138;DHT22;8199;51.310;9.466;2023-07-13T10:19:19;27.40;48.80
14138;DHT22;8199;51.310;9.466;2023-07-13T10:22:00;27.30;48.80
14138;DHT22;8199;51.310;9.466;2023-07-13T10:24:29;27.30;48.80
14138;DHT22;8199;51.310;9.466;2023-07-13T10:27:13;27.40;48.80
14138;DHT22;8199;51.310;9.466;2023-07-13T10:29:54;27.30;48.90
14138;DHT22;8199;51.310;9.466;2023-07-13T10:32:24;27.40;48.90
14138;DHT22;8199;51.310;9.466;2023-07-13T10:34:50;27.40;48.80
14138;DHT22;8199;51.310;9.466;2023-07-13T10:37:26;27.50;48.90
14138;DHT22;8199;51.310;9.466;2023-07-13T10:39:55;27.50;49.00
14138;DHT22;8199;51.310;9.466;2023-07-13T10:42:28;27.40;49.00
14138;DHT22;8199;51.310;9.466;2023-07-13T10:44:56;27.40;49.10
14138;DHT22;8199;51.310;9.466;2023-07-13T10:47:22;27.40;49.10
14138;DHT22;8199;51.310;9.466;2023-07-13T10:49:52;27.40;49.10
14138;DHT22;8199;51.310;9.466;2023-07-13T10:52:49;27.40;49.00
14138;DHT22;8199;51.310;9.466;2023-07-13T10:55:32;27.40;49.10
14138;DHT22;8199;51.310;9.466;2023-07-13T11:03:36;27.60;48.90
14138;DHT22;8199;51.310;9.466;2023-07-13T11:08:54;27.60;48.80
14138;DHT22;8199;51.310;9.466;2023-07-13T11:18:51;27.50;49.10
14138;DHT22;8199;51.310;9.466;2023-07-13T11:21:21;27.50;49.10
14138;DHT22;8199;51.310;9.466;2023-07-13T11:24:15;27.50;49.00
14138;DHT22;8199;51.310;9.466;2023-07-13T11:29:37;27.50;49.00
14138;DHT22;8199;51.310;9.466;2023-07-13T11:32:23;27.50;49.10
14138;DHT22;8199;51.310;9.466;2023-07-13T11:34:49;27.50;49.10
14138;DHT22;8199;51.310;9.466;2023-07-13T11:37:17;27.50;49.00
14138;DHT22;8199;51.310;9.466;2023-07-13T11:39:44;27.50;49.00
14138;DHT22;8199;51.310;9.466;2023-07-13T11:42:17;27.50;49.10
14138;DHT22;8199;51.310;9.466;2023-07-13T11:44:49;27.50;49.10
14138;DHT22;8199;51.310;9.466;2023-07-13T11:47:18;27.50;49.20
14138;DHT22;8199;51.310;9.466;2023-07-13T11:49:48;27.50;49.10
14138;DHT22;8199;51.310;9.466;2023-07-13T11:52:17;27.50;49.10
14138;DHT22;8199;51.310;9.466;2023-07-13T11:54:49;27.50;49.10
14138;DHT22;8199;51.310;9.466;2023-07-13T11:57:36;27.50;49.10
14138;DHT22;8199;51.310;9.466;2023-07-13T12:00:12;27.50;49.10
14138;DHT22;8199;51.310;9.466;2023-07-13T12:02:43;27.50;49.10
14138;DHT22;8199;51.310;9.466;2023-07-13T12:05:14;27.50;49.00
14138;DHT22;8199;51.310;9.466;2023-07-13T12:07:40;27.50;49.10
14138;DHT22;8199;51.310;9.466;2023-07-13T12:10:22;27.50;49.10
14138;DHT22;8199;51.310;9.466;2023-07-13T12:12:55;27.50;49.10
14138;DHT22;8199;51.310;9.466;2023-07-13T12:15:22;27.50;49.10
14138;DHT22;8199;51.310;9.466;2023-07-13T12:17:49;27.50;49.00
14138;DHT22;8199;51.310;9.466;2023-07-13T12:20:21;27.60;49.10
14138;DHT22;8199;51.310;9.466;2023-07-13T12:22:50;27.50;49.10
14138;DHT22;8199;51.310;9.466;2023-07-13T12:25:16;27.50;49.10
14138;DHT22;8199;51.310;9.466;2023-07-13T12:27:47;27.50;49.20
14138;DHT22;8199;51.310;9.466;2023-07-13T12:30:32;27.50;49.20
14138;DHT22;8199;51.310;9.466;2023-07-13T12:33:12;27.50;49.20
14138;DHT22;8199;51.310;9.466;2023-07-13T12:35:44;27.60;49.10
14138;DHT22;8199;51.310;9.466;2023-07-13T12:38:11;27.60;49.20
14138;DHT22;8199;51.310;9.466;2023-07-13T12:40:37;27.50;49.20
14138;DHT22;8199;51.310;9.466;2023-07-13T12:43:04;27.50;49.10
14138;DHT22;8199;51.310;9.466;2023-07-13T12:45:32;27.50;49.20
14138;DHT22;8199;51.310;9.466;2023-07-13T12:48:03;27.50;49.20
14138;DHT22;8199;51.310;9.466;2023-07-13T12:50:36;27.50;49.20
14138;DHT22;8199;51.310;9.466;2023-07-13T12:53:04;27.50;49.20
14138;DHT22;8199;51.310;9.466;2023-07-13T12:55:44;27.50;49.20
14138;DHT22;8199;51.310;9.466;2023-07-13T12:58:25;27.50;49.20
14138;DHT22;8199;51.310;9.466;2023-07-13T13:00:51;27.50;49.20
14138;DHT22;8199;51.310;9.466;2023-07-13T13:06:22;27.50;49.20
14138;DHT22;8199;51.310;9.466;2023-07-13T13:08:59;27.60;49.30
14138;DHT22;8199;51.310;9.466;2023-07-13T13:11:26;27.60;49.30
14138;DHT22;8199;51.310;9.466;2023-07-13T13:13:52;27.60;49.10
14138;DHT22;8199;51.310;9.466;2023-07-13T13:16:43;27.60;49.10
14138;DHT22;8199;51.310;9.466;2023-07-13T13:19:21;27.60;49.10
14138;DHT22;8199;51.310;9.466;2023-07-13T13:21:48;27.60;48.90
14138;DHT22;8199;51.310;9.466;2023-07-13T13:24:20;27.70;48.90
14138;DHT22;8199;51.310;9.466;2023-07-13T13:26:46;27.70;48.80
14138;DHT22;8199;51.310;9.466;2023-07-13T13:29:14;27.70;49.00
14138;DHT22;8199;51.310;9.466;2023-07-13T13:31:41;27.70;48.90
14138;DHT22;8199;51.310;9.466;2023-07-13T13:34:12;27.60;49.10
14138;DHT22;8199;51.310;9.466;2023-07-13T13:36:39;27.60;49.00
14138;DHT22;8199;51.310;9.466;2023-07-13T13:39:22;27.60;48.90
14138;DHT22;8199;51.310;9.466;2023-07-13T13:41:50;27.70;48.60
14138;DHT22;8199;51.310;9.466;2023-07-13T13:44:17;27.80;48.70
14138;DHT22;8199;51.310;9.466;2023-07-13T13:46:47;27.70;48.90
14138;DHT22;8199;51.310;9.466;2023-07-13T13:49:16;27.60;49.00
14138;DHT22;8199;51.310;9.466;2023-07-13T13:51:42;27.70;49.20
14138;DHT22;8199;51.310;9.466;2023-07-13T13:54:13;27.80;49.10
14138;DHT22;8199;51.310;9.466;2023-07-13T13:56:40;27.80;49.70
14138;DHT22;8199;51.310;9.466;2023-07-13T13:59:06;27.80;49.80
14138;DHT22;8199;51.310;9.466;2023-07-13T14:01:31;27.80;50.10
14138;DHT22;8199;51.310;9.466;2023-07-13T14:03:57;27.80;50.30
14138;DHT22;8199;51.310;9.466;2023-07-13T14:06:24;27.80;50.30
14138;DHT22;8199;51.310;9.466;2023-07-13T14:08:50;27.90;50.30
14138;DHT22;8199;51.310;9.466;2023-07-13T14:11:18;27.90;50.20
14138;DHT22;8199;51.310;9.466;2023-07-13T14:13:56;27.90;50.20
14138;DHT22;8199;51.310;9.466;2023-07-13T14:16:29;28.00;50.00
14138;DHT22;8199;51.310;9.466;2023-07-13T14:18:57;28.00;50.00
14138;DHT22;8199;51.310;9.466;2023-07-13T14:21:26;28.10;50.00
14138;DHT22;8199;51.310;9.466;2023-07-13T14:23:51;28.10;49.90
14138;DHT22;8199;51.310;9.466;2023-07-13T14:26:20;28.20;49.80
14138;DHT22;8199;51.310;9.466;2023-07-13T14:28:52;28.20;49.80
14138;DHT22;8199;51.310;9.466;2023-07-13T14:31:18;28.20;50.10
14138;DHT22;8199;51.310;9.466;2023-07-13T14:33:44;28.20;49.80
14138;DHT22;8199;51.310;9.466;2023-07-13T14:38:46;28.20;49.60
14138;DHT22;8199;51.310;9.466;2023-07-13T14:41:12;28.20;49.50
14138;DHT22;8199;51.310;9.466;2023-07-13T14:43:37;28.30;47.30
14138;DHT22;8199;51.310;9.466;2023-07-13T14:46:03;28.20;45.40
14138;DHT22;8199;51.310;9.466;2023-07-13T14:48:29;28.20;44.50
14138;DHT22;8199;51.310;9.466;2023-07-13T14:50:57;28.20;43.10
14138;DHT22;8199;51.310;9.466;2023-07-13T14:53:25;28.10;43.10
14138;DHT22;8199;51.310;9.466;2023-07-13T14:55:52;28.00;42.20
14138;DHT22;8199;51.310;9.466;2023-07-13T14:58:18;28.00;42.50
14138;DHT22;8199;51.310;9.466;2023-07-13T15:00:44;28.00;41.90
14138;DHT22;8199;51.310;9.466;2023-07-13T15:03:19;28.00;41.60
14138;DHT22;8199;51.310;9.466;2023-07-13T15:05:47;27.90;42.20
14138;DHT22;8199;51.310;9.466;2023-07-13T15:08:13;27.90;41.80
14138;DHT22;8199;51.310;9.466;2023-07-13T15:10:40;27.90;43.20
14138;DHT22;8199;51.310;9.466;2023-07-13T15:13:21;27.90;43.40
14138;DHT22;8199;51.310;9.466;2023-07-13T15:15:48;27.90;42.20
14138;DHT22;8199;51.310;9.466;2023-07-13T15:18:16;27.80;41.70
14138;DHT22;8199;51.310;9.466;2023-07-13T15:20:44;27.80;41.60
14138;DHT22;8199;51.310;9.466;2023-07-13T15:23:11;27.70;41.40
14138;DHT22;8199;51.310;9.466;2023-07-13T15:25:37;27.70;41.30
14138;DHT22;8199;51.310;9.466;2023-07-13T15:28:03;27.80;40.40
14138;DHT22;8199;51.310;9.466;2023-07-13T15:30:31;27.70;40.20
14138;DHT22;8199;51.310;9.466;2023-07-13T15:33:01;27.70;40.10
14138;DHT22;8199;51.310;9.466;2023-07-13T15:35:33;27.70;40.20
14138;DHT22;8199;51.310;9.466;2023-07-13T15:37:58;27.70;40.00
14138;DHT22;8199;51.310;9.466;2023-07-13T15:40:24;27.70;40.30
14138;DHT22;8199;51.310;9.466;2023-07-13T15:42:50;27.60;40.00
14138;DHT22;8199;51.310;9.466;2023-07-13T15:45:23;27.70;40.20
14138;DHT22;8199;51.310;9.466;2023-07-13T15:47:50;27.70;40.10
14138;DHT22;8199;51.310;9.466;2023-07-13T15:50:21;27.70;40.00
14138;DHT22;8199;51.310;9.466;2023-07-13T15:52:50;27.70;40.00
14138;DHT22;8199;51.310;9.466;2023-07-13T15:55:16;27.70;40.40
14138;DHT22;8199;51.310;9.466;2023-07-13T15:57:46;27.60;40.10
14138;DHT22;8199;51.310;9.466;2023-07-13T16:00:23;27.60;40.30
14138;DHT22;8199;51.310;9.466;2023-07-13T16:02:50;27.60;40.20
14138;DHT22;8199;51.310;9.466;2023-07-13T16:05:17;27.60;40.20
14138;DHT22;8199;51.310;9.466;2023-07-13T16:07:47;27.60;40.50
14138;DHT22;8199;51.310;9.466;2023-07-13T16:10:19;27.50;41.30
14138;DHT22;8199;51.310;9.466;2023-07-13T16:12:46;27.60;40.90
14138;DHT22;8199;51.310;9.466;2023-07-13T16:15:17;27.60;41.30
14138;DHT22;8199;51.310;9.466;2023-07-13T16:17:44;27.60;40.80
14138;DHT22;8199;51.310;9.466;2023-07-13T16:20:11;27.70;40.90
14138;DHT22;8199;51.310;9.466;2023-07-13T16:22:38;27.70;40.80
14138;DHT22;8199;51.310;9.466;2023-07-13T16:27:45;27.80;40.50
14138;DHT22;8199;51.310;9.466;2023-07-13T16:30:20;27.80;40.10
14138;DHT22;8199;51.310;9.466;2023-07-13T16:32:52;27.80;40.20
14138;DHT22;8199;51.310;9.466;2023-07-13T16:35:19;27.90;40.30
14138;DHT22;8199;51.310;9.466;2023-07-13T16:37:44;27.90;40.00
14138;DHT22;8199;51.310;9.466;2023-07-13T16:42:47;27.90;41.30